sensor_id;sensor_type;location;lat;lon;timestamp;P1;durP1;ratioP1;P2;durP2;ratioP2
55210;SDS011;41082;52.822;6.666;2023-04-06T00:01:38;4.78;;;3.05;;
55210;SDS011;41082;52.822;6.666;2023-04-06T00:04:04;3.83;;;2.50;;
55210;SDS011;41082;52.822;6.666;2023-04-06T00:06:30;5.80;;;2.67;;
55210;SDS011;41082;52.822;6.666;2023-04-06T00:08:57;4.03;;;2.63;;
55210;SDS011;41082;52.822;6.666;2023-04-06T00:11:23;4.55;;;2.88;;
55210;SDS011;41082;52.822;6.666;2023-04-06T00:13:48;3.97;;;2.55;;
55210;SDS011;41082;52.822;6.666;2023-04-06T00:16:14;4.13;;;2.80;;
55210;SDS011;41082;52.822;6.666;2023-04-06T00:18:40;3.60;;;2.63;;
55210;SDS011;41082;52.822;6.666;2023-04-06T00:21:05;3.15;;;2.05;;
55210;SDS011;41082;52.822;6.666;2023-04-06T00:23:31;3.30;;;2.30;;
55210;SDS011;41082;52.822;6.666;2023-04-06T00:25:56;4.50;;;2.92;;
55210;SDS011;41082;52.822;6.666;2023-04-06T00:28:22;4.32;;;2.33;;
55210;SDS011;41082;52.822;6.666;2023-04-06T00:30:51;3.40;;;2.47;;
55210;SDS011;41082;52.822;6.666;2023-04-06T00:33:18;3.92;;;2.70;;
55210;SDS011;41082;52.822;6.666;2023-04-06T00:35:44;6.38;;;2.20;;
55210;SDS011;41082;52.822;6.666;2023-04-06T00:38:10;3.80;;;2.78;;
55210;SDS011;41082;52.822;6.666;2023-04-06T00:40:36;4.35;;;2.78;;
55210;SDS011;41082;52.822;6.666;2023-04-06T00:43:01;3.65;;;2.42;;
55210;SDS011;41082;52.822;6.666;2023-04-06T00:45:27;3.42;;;3.03;;
55210;SDS011;41082;52.822;6.666;2023-04-06T00:47:53;4.57;;;2.55;;
55210;SDS011;41082;52.822;6.666;2023-04-06T00:50:19;3.67;;;2.80;;
55210;SDS011;41082;52.822;6.666;2023-04-06T00:52:44;4.47;;;2.47;;
55210;SDS011;41082;52.822;6.666;2023-04-06T00:55:10;2.80;;;2.38;;
55210;SDS011;41082;52.822;6.666;2023-04-06T00:57:36;6.03;;;2.72;;
55210;SDS011;41082;52.822;6.666;2023-04-06T01:00:02;4.03;;;2.75;;
55210;SDS011;41082;52.822;6.666;2023-04-06T01:02:28;4.68;;;2.90;;
55210;SDS011;41082;52.822;6.666;2023-04-06T01:04:54;3.22;;;2.53;;
55210;SDS011;41082;52.822;6.666;2023-04-06T01:07:20;4.60;;;2.88;;
55210;SDS011;41082;52.822;6.666;2023-04-06T01:09:46;3.35;;;2.40;;
55210;SDS011;41082;52.822;6.666;2023-04-06T01:12:11;5.97;;;2.60;;
55210;SDS011;41082;52.822;6.666;2023-04-06T01:14:37;4.22;;;2.63;;
55210;SDS011;41082;52.822;6.666;2023-04-06T01:17:02;3.60;;;2.80;;
55210;SDS011;41082;52.822;6.666;2023-04-06T01:19:28;3.67;;;2.10;;
55210;SDS011;41082;52.822;6.666;2023-04-06T01:21:54;5.22;;;2.60;;
55210;SDS011;41082;52.822;6.666;2023-04-06T01:24:20;3.25;;;2.03;;
55210;SDS011;41082;52.822;6.666;2023-04-06T01:26:46;3.67;;;2.30;;
55210;SDS011;41082;52.822;6.666;2023-04-06T01:29:12;3.58;;;2.13;;
55210;SDS011;41082;52.822;6.666;2023-04-06T01:31:38;4.25;;;2.47;;
55210;SDS011;41082;52.822;6.666;2023-04-06T01:34:04;4.68;;;2.55;;
55210;SDS011;41082;52.822;6.666;2023-04-06T01:36:30;3.50;;;2.45;;
55210;SDS011;41082;52.822;6.666;2023-04-06T01:38:56;4.03;;;2.30;;
55210;SDS011;41082;52.822;6.666;2023-04-06T01:41:22;4.60;;;1.98;;
55210;SDS011;41082;52.822;6.666;2023-04-06T01:43:48;3.88;;;2.53;;
55210;SDS011;41082;52.822;6.666;2023-04-06T01:46:14;6.78;;;2.58;;
55210;SDS011;41082;52.822;6.666;2023-04-06T01:48:40;4.40;;;2.42;;
55210;SDS011;41082;52.822;6.666;2023-04-06T01:51:06;3.65;;;2.80;;
55210;SDS011;41082;52.822;6.666;2023-04-06T01:53:32;4.68;;;2.50;;
55210;SDS011;41082;52.822;6.666;2023-04-06T01:55:57;3.95;;;2.30;;
55210;SDS011;41082;52.822;6.666;2023-04-06T01:58:23;3.42;;;2.15;;
55210;SDS011;41082;52.822;6.666;2023-04-06T02:00:48;7.25;;;2.95;;
55210;SDS011;41082;52.822;6.666;2023-04-06T02:03:14;5.78;;;2.30;;
55210;SDS011;41082;52.822;6.666;2023-04-06T02:05:40;3.50;;;2.30;;
55210;SDS011;41082;52.822;6.666;2023-04-06T02:08:05;5.05;;;2.95;;
55210;SDS011;41082;52.822;6.666;2023-04-06T02:10:32;5.00;;;1.98;;
55210;SDS011;41082;52.822;6.666;2023-04-06T02:12:58;5.45;;;2.20;;
55210;SDS011;41082;52.822;6.666;2023-04-06T02:15:24;3.58;;;2.20;;
55210;SDS011;41082;52.822;6.666;2023-04-06T02:17:50;3.70;;;2.17;;
55210;SDS011;41082;52.822;6.666;2023-04-06T02:20:16;3.83;;;2.60;;
55210;SDS011;41082;52.822;6.666;2023-04-06T02:22:42;6.22;;;2.83;;
55210;SDS011;41082;52.822;6.666;2023-04-06T02:25:08;4.78;;;3.10;;
55210;SDS011;41082;52.822;6.666;2023-04-06T02:27:34;4.55;;;2.63;;
55210;SDS011;41082;52.822;6.666;2023-04-06T02:30:00;3.65;;;2.20;;
55210;SDS011;41082;52.822;6.666;2023-04-06T02:32:26;4.93;;;2.53;;
55210;SDS011;41082;52.822;6.666;2023-04-06T02:34:51;4.72;;;2.47;;
55210;SDS011;41082;52.822;6.666;2023-04-06T02:37:17;3.60;;;2.88;;
55210;SDS011;41082;52.822;6.666;2023-04-06T02:39:42;4.80;;;3.25;;
55210;SDS011;41082;52.822;6.666;2023-04-06T02:42:08;4.22;;;2.80;;
55210;SDS011;41082;52.822;6.666;2023-04-06T02:44:34;6.43;;;3.35;;
55210;SDS011;41082;52.822;6.666;2023-04-06T02:46:59;5.07;;;3.40;;
55210;SDS011;41082;52.822;6.666;2023-04-06T02:49:25;5.80;;;3.28;;
55210;SDS011;41082;52.822;6.666;2023-04-06T02:51:50;6.78;;;3.92;;
55210;SDS011;41082;52.822;6.666;2023-04-06T02:54:16;5.78;;;3.00;;
55210;SDS011;41082;52.822;6.666;2023-04-06T02:56:43;5.25;;;3.25;;
55210;SDS011;41082;52.822;6.666;2023-04-06T02:59:09;5.88;;;3.25;;
55210;SDS011;41082;52.822;6.666;2023-04-06T03:01:35;4.60;;;2.65;;
55210;SDS011;41082;52.822;6.666;2023-04-06T03:04:01;4.13;;;3.08;;
55210;SDS011;41082;52.822;6.666;2023-04-06T03:06:26;5.57;;;3.20;;
55210;SDS011;41082;52.822;6.666;2023-04-06T03:08:52;6.07;;;3.30;;
55210;SDS011;41082;52.822;6.666;2023-04-06T03:11:17;4.25;;;3.40;;
55210;SDS011;41082;52.822;6.666;2023-04-06T03:13:44;4.78;;;3.03;;
55210;SDS011;41082;52.822;6.666;2023-04-06T03:16:10;5.78;;;3.70;;
55210;SDS011;41082;52.822;6.666;2023-04-06T03:18:35;5.75;;;3.22;;
55210;SDS011;41082;52.822;6.666;2023-04-06T03:21:01;5.30;;;3.45;;
55210;SDS011;41082;52.822;6.666;2023-04-06T03:23:27;4.88;;;3.13;;
55210;SDS011;41082;52.822;6.666;2023-04-06T03:25:52;3.67;;;3.00;;
55210;SDS011;41082;52.822;6.666;2023-04-06T03:28:18;5.82;;;3.58;;
55210;SDS011;41082;52.822;6.666;2023-04-06T03:30:44;5.10;;;3.08;;
55210;SDS011;41082;52.822;6.666;2023-04-06T03:33:10;5.20;;;3.35;;
55210;SDS011;41082;52.822;6.666;2023-04-06T03:35:36;5.05;;;3.20;;
55210;SDS011;41082;52.822;6.666;2023-04-06T03:38:02;5.07;;;3.55;;
55210;SDS011;41082;52.822;6.666;2023-04-06T03:40:28;4.95;;;3.40;;
55210;SDS011;41082;52.822;6.666;2023-04-06T03:42:54;5.80;;;3.50;;
55210;SDS011;41082;52.822;6.666;2023-04-06T03:45:20;6.07;;;3.67;;
55210;SDS011;41082;52.822;6.666;2023-04-06T03:47:46;7.13;;;3.50;;
55210;SDS011;41082;52.822;6.666;2023-04-06T03:50:11;6.00;;;3.10;;
55210;SDS011;41082;52.822;6.666;2023-04-06T03:52:37;5.68;;;4.00;;
55210;SDS011;41082;52.822;6.666;2023-04-06T03:55:03;5.60;;;4.05;;
55210;SDS011;41082;52.822;6.666;2023-04-06T03:57:29;4.22;;;3.53;;
55210;SDS011;41082;52.822;6.666;2023-04-06T03:59:54;8.23;;;3.67;;
55210;SDS011;41082;52.822;6.666;2023-04-06T04:02:20;5.55;;;3.80;;
55210;SDS011;41082;52.822;6.666;2023-04-06T04:04:45;5.32;;;3.72;;
55210;SDS011;41082;52.822;6.666;2023-04-06T04:07:11;7.97;;;3.90;;
55210;SDS011;41082;52.822;6.666;2023-04-06T04:09:36;6.85;;;3.90;;
55210;SDS011;41082;52.822;6.666;2023-04-06T04:12:02;6.53;;;3.72;;
55210;SDS011;41082;52.822;6.666;2023-04-06T04:14:28;6.38;;;3.78;;
55210;SDS011;41082;52.822;6.666;2023-04-06T04:16:53;7.57;;;3.65;;
55210;SDS011;41082;52.822;6.666;2023-04-06T04:19:19;5.60;;;4.10;;
55210;SDS011;41082;52.822;6.666;2023-04-06T04:21:45;6.90;;;3.83;;
55210;SDS011;41082;52.822;6.666;2023-04-06T04:24:11;6.55;;;4.07;;
55210;SDS011;41082;52.822;6.666;2023-04-06T04:26:37;5.97;;;3.70;;
55210;SDS011;41082;52.822;6.666;2023-04-06T04:29:03;5.95;;;4.07;;
55210;SDS011;41082;52.822;6.666;2023-04-06T04:31:30;5.95;;;4.10;;
55210;SDS011;41082;52.822;6.666;2023-04-06T04:33:55;7.55;;;4.28;;
55210;SDS011;41082;52.822;6.666;2023-04-06T04:36:21;7.13;;;4.40;;
55210;SDS011;41082;52.822;6.666;2023-04-06T04:38:48;6.40;;;4.63;;
55210;SDS011;41082;52.822;6.666;2023-04-06T04:41:13;6.63;;;4.68;;
55210;SDS011;41082;52.822;6.666;2023-04-06T04:43:39;6.32;;;4.07;;
55210;SDS011;41082;52.822;6.666;2023-04-06T04:46:04;10.32;;;5.00;;
55210;SDS011;41082;52.822;6.666;2023-04-06T04:48:30;7.07;;;4.90;;
55210;SDS011;41082;52.822;6.666;2023-04-06T04:50:56;6.03;;;4.55;;
55210;SDS011;41082;52.822;6.666;2023-04-06T04:53:21;6.15;;;4.47;;
55210;SDS011;41082;52.822;6.666;2023-04-06T04:55:47;7.22;;;4.43;;
55210;SDS011;41082;52.822;6.666;2023-04-06T04:58:12;6.88;;;4.38;;
55210;SDS011;41082;52.822;6.666;2023-04-06T05:00:44;9.55;;;6.00;;
55210;SDS011;41082;52.822;6.666;2023-04-06T05:03:13;7.05;;;4.60;;
55210;SDS011;41082;52.822;6.666;2023-04-06T05:05:49;9.68;;;4.85;;
55210;SDS011;41082;52.822;6.666;2023-04-06T05:08:15;7.43;;;4.63;;
55210;SDS011;41082;52.822;6.666;2023-04-06T05:10:41;8.15;;;4.85;;
55210;SDS011;41082;52.822;6.666;2023-04-06T05:13:07;5.70;;;4.22;;
55210;SDS011;41082;52.822;6.666;2023-04-06T05:15:32;7.68;;;4.82;;
55210;SDS011;41082;52.822;6.666;2023-04-06T05:18:03;7.57;;;5.25;;
55210;SDS011;41082;52.822;6.666;2023-04-06T05:20:29;6.15;;;4.68;;
55210;SDS011;41082;52.822;6.666;2023-04-06T05:22:55;7.63;;;5.43;;
55210;SDS011;41082;52.822;6.666;2023-04-06T05:25:21;8.35;;;5.38;;
55210;SDS011;41082;52.822;6.666;2023-04-06T05:27:46;6.18;;;4.53;;
55210;SDS011;41082;52.822;6.666;2023-04-06T05:30:12;7.50;;;4.95;;
55210;SDS011;41082;52.822;6.666;2023-04-06T05:32:38;6.85;;;5.05;;
55210;SDS011;41082;52.822;6.666;2023-04-06T05:35:04;7.97;;;5.20;;
55210;SDS011;41082;52.822;6.666;2023-04-06T05:37:30;6.32;;;4.97;;
55210;SDS011;41082;52.822;6.666;2023-04-06T05:39:56;7.35;;;5.10;;
55210;SDS011;41082;52.822;6.666;2023-04-06T05:42:22;6.82;;;5.40;;
55210;SDS011;41082;52.822;6.666;2023-04-06T05:44:47;9.93;;;5.45;;
55210;SDS011;41082;52.822;6.666;2023-04-06T05:47:13;7.68;;;5.25;;
55210;SDS011;41082;52.822;6.666;2023-04-06T05:49:39;9.45;;;5.28;;
55210;SDS011;41082;52.822;6.666;2023-04-06T05:52:06;8.93;;;5.93;;
55210;SDS011;41082;52.822;6.666;2023-04-06T05:54:31;9.27;;;6.07;;
55210;SDS011;41082;52.822;6.666;2023-04-06T05:56:57;8.15;;;6.00;;
55210;SDS011;41082;52.822;6.666;2023-04-06T05:59:23;9.30;;;5.82;;
55210;SDS011;41082;52.822;6.666;2023-04-06T06:01:48;10.50;;;5.90;;
55210;SDS011;41082;52.822;6.666;2023-04-06T06:04:14;6.68;;;5.15;;
55210;SDS011;41082;52.822;6.666;2023-04-06T06:06:39;7.97;;;5.63;;
55210;SDS011;41082;52.822;6.666;2023-04-06T06:09:05;11.57;;;6.68;;
55210;SDS011;41082;52.822;6.666;2023-04-06T06:11:31;9.00;;;6.65;;
55210;SDS011;41082;52.822;6.666;2023-04-06T06:13:58;9.75;;;6.55;;
55210;SDS011;41082;52.822;6.666;2023-04-06T06:16:23;10.68;;;7.45;;
55210;SDS011;41082;52.822;6.666;2023-04-06T06:18:49;10.52;;;6.00;;
55210;SDS011;41082;52.822;6.666;2023-04-06T06:21:14;10.07;;;6.57;;
55210;SDS011;41082;52.822;6.666;2023-04-06T06:23:42;9.50;;;6.93;;
55210;SDS011;41082;52.822;6.666;2023-04-06T06:26:08;9.65;;;6.85;;
55210;SDS011;41082;52.822;6.666;2023-04-06T06:28:33;12.60;;;7.22;;
55210;SDS011;41082;52.822;6.666;2023-04-06T06:30:59;11.15;;;6.32;;
55210;SDS011;41082;52.822;6.666;2023-04-06T06:33:26;8.57;;;6.55;;
55210;SDS011;41082;52.822;6.666;2023-04-06T06:35:51;8.27;;;6.20;;
55210;SDS011;41082;52.822;6.666;2023-04-06T06:38:17;8.70;;;6.90;;
55210;SDS011;41082;52.822;6.666;2023-04-06T06:40:44;9.85;;;6.82;;
55210;SDS011;41082;52.822;6.666;2023-04-06T06:43:11;11.15;;;6.47;;
55210;SDS011;41082;52.822;6.666;2023-04-06T06:45:36;12.85;;;7.38;;
55210;SDS011;41082;52.822;6.666;2023-04-06T06:48:02;9.93;;;6.43;;
55210;SDS011;41082;52.822;6.666;2023-04-06T06:50:27;11.32;;;7.40;;
55210;SDS011;41082;52.822;6.666;2023-04-06T06:52:53;12.50;;;7.32;;
55210;SDS011;41082;52.822;6.666;2023-04-06T06:55:19;11.02;;;6.78;;
55210;SDS011;41082;52.822;6.666;2023-04-06T06:57:45;7.45;;;6.00;;
55210;SDS011;41082;52.822;6.666;2023-04-06T07:00:11;8.60;;;6.47;;
55210;SDS011;41082;52.822;6.666;2023-04-06T07:02:38;9.80;;;6.93;;
55210;SDS011;41082;52.822;6.666;2023-04-06T07:05:04;11.57;;;7.10;;
55210;SDS011;41082;52.822;6.666;2023-04-06T07:07:33;11.00;;;7.32;;
55210;SDS011;41082;52.822;6.666;2023-04-06T07:09:59;13.63;;;7.55;;
55210;SDS011;41082;52.822;6.666;2023-04-06T07:12:26;10.68;;;6.95;;
55210;SDS011;41082;52.822;6.666;2023-04-06T07:14:52;10.68;;;8.07;;
55210;SDS011;41082;52.822;6.666;2023-04-06T07:17:18;10.70;;;7.45;;
55210;SDS011;41082;52.822;6.666;2023-04-06T07:19:43;9.15;;;7.28;;
55210;SDS011;41082;52.822;6.666;2023-04-06T07:22:10;14.23;;;7.50;;
55210;SDS011;41082;52.822;6.666;2023-04-06T07:24:36;11.15;;;7.45;;
55210;SDS011;41082;52.822;6.666;2023-04-06T07:27:01;10.18;;;7.30;;
55210;SDS011;41082;52.822;6.666;2023-04-06T07:29:27;10.55;;;6.50;;
55210;SDS011;41082;52.822;6.666;2023-04-06T07:31:53;11.43;;;7.13;;
55210;SDS011;41082;52.822;6.666;2023-04-06T07:34:19;9.35;;;6.72;;
55210;SDS011;41082;52.822;6.666;2023-04-06T07:36:45;10.32;;;6.78;;
55210;SDS011;41082;52.822;6.666;2023-04-06T07:39:11;11.27;;;7.18;;
55210;SDS011;41082;52.822;6.666;2023-04-06T07:41:36;12.88;;;8.85;;
55210;SDS011;41082;52.822;6.666;2023-04-06T07:44:02;10.75;;;8.30;;
55210;SDS011;41082;52.822;6.666;2023-04-06T07:46:28;13.48;;;7.22;;
55210;SDS011;41082;52.822;6.666;2023-04-06T07:48:54;11.25;;;7.78;;
55210;SDS011;41082;52.822;6.666;2023-04-06T07:51:21;13.52;;;8.20;;
55210;SDS011;41082;52.822;6.666;2023-04-06T07:53:46;11.75;;;8.05;;
55210;SDS011;41082;52.822;6.666;2023-04-06T07:56:12;10.38;;;7.32;;
55210;SDS011;41082;52.822;6.666;2023-04-06T07:58:37;10.55;;;7.28;;
55210;SDS011;41082;52.822;6.666;2023-04-06T08:01:03;9.73;;;7.65;;
55210;SDS011;41082;52.822;6.666;2023-04-06T08:03:29;10.75;;;7.65;;
55210;SDS011;41082;52.822;6.666;2023-04-06T08:05:55;11.40;;;7.78;;
55210;SDS011;41082;52.822;6.666;2023-04-06T08:08:20;13.80;;;7.57;;
55210;SDS011;41082;52.822;6.666;2023-04-06T08:10:47;13.05;;;6.70;;
55210;SDS011;41082;52.822;6.666;2023-04-06T08:13:14;8.25;;;7.30;;
55210;SDS011;41082;52.822;6.666;2023-04-06T08:15:40;11.63;;;7.60;;
55210;SDS011;41082;52.822;6.666;2023-04-06T08:18:05;10.05;;;7.78;;
55210;SDS011;41082;52.822;6.666;2023-04-06T08:20:31;13.18;;;7.35;;
55210;SDS011;41082;52.822;6.666;2023-04-06T08:22:57;13.52;;;7.80;;
55210;SDS011;41082;52.822;6.666;2023-04-06T08:25:22;11.23;;;7.85;;
55210;SDS011;41082;52.822;6.666;2023-04-06T08:27:48;11.63;;;7.45;;
55210;SDS011;41082;52.822;6.666;2023-04-06T08:30:13;9.88;;;7.22;;
55210;SDS011;41082;52.822;6.666;2023-04-06T08:32:40;11.40;;;7.22;;
55210;SDS011;41082;52.822;6.666;2023-04-06T08:35:07;11.95;;;7.30;;
55210;SDS011;41082;52.822;6.666;2023-04-06T08:37:33;10.40;;;7.80;;
55210;SDS011;41082;52.822;6.666;2023-04-06T08:39:58;10.82;;;7.28;;
55210;SDS011;41082;52.822;6.666;2023-04-06T08:42:25;10.30;;;7.47;;
55210;SDS011;41082;52.822;6.666;2023-04-06T08:44:51;13.23;;;7.95;;
55210;SDS011;41082;52.822;6.666;2023-04-06T08:47:17;8.77;;;7.28;;
55210;SDS011;41082;52.822;6.666;2023-04-06T08:49:44;11.77;;;6.88;;
55210;SDS011;41082;52.822;6.666;2023-04-06T08:52:11;11.15;;;7.57;;
55210;SDS011;41082;52.822;6.666;2023-04-06T08:54:37;10.68;;;7.65;;
55210;SDS011;41082;52.822;6.666;2023-04-06T08:57:04;11.05;;;7.63;;
55210;SDS011;41082;52.822;6.666;2023-04-06T08:59:31;10.55;;;7.53;;
55210;SDS011;41082;52.822;6.666;2023-04-06T09:01:57;11.02;;;7.50;;
55210;SDS011;41082;52.822;6.666;2023-04-06T09:04:23;10.13;;;7.57;;
55210;SDS011;41082;52.822;6.666;2023-04-06T09:06:49;9.75;;;7.95;;
55210;SDS011;41082;52.822;6.666;2023-04-06T09:09:15;12.90;;;8.20;;
55210;SDS011;41082;52.822;6.666;2023-04-06T09:11:44;13.77;;;8.75;;
55210;SDS011;41082;52.822;6.666;2023-04-06T09:14:10;11.43;;;8.43;;
55210;SDS011;41082;52.822;6.666;2023-04-06T09:16:40;12.57;;;8.68;;
55210;SDS011;41082;52.822;6.666;2023-04-06T09:19:07;13.15;;;8.95;;
55210;SDS011;41082;52.822;6.666;2023-04-06T09:21:33;14.40;;;9.20;;
55210;SDS011;41082;52.822;6.666;2023-04-06T09:23:59;13.52;;;8.95;;
55210;SDS011;41082;52.822;6.666;2023-04-06T09:26:26;12.05;;;9.15;;
55210;SDS011;41082;52.822;6.666;2023-04-06T09:28:55;11.50;;;8.57;;
55210;SDS011;41082;52.822;6.666;2023-04-06T09:31:23;11.85;;;9.20;;
55210;SDS011;41082;52.822;6.666;2023-04-06T09:33:57;12.85;;;9.35;;
55210;SDS011;41082;52.822;6.666;2023-04-06T09:36:35;13.85;;;8.98;;
55210;SDS011;41082;52.822;6.666;2023-04-06T09:39:06;16.75;;;9.55;;
55210;SDS011;41082;52.822;6.666;2023-04-06T09:41:33;12.70;;;9.30;;
55210;SDS011;41082;52.822;6.666;2023-04-06T09:44:03;11.88;;;9.65;;
55210;SDS011;41082;52.822;6.666;2023-04-06T09:46:40;15.05;;;9.95;;
55210;SDS011;41082;52.822;6.666;2023-04-06T09:49:06;15.30;;;10.05;;
55210;SDS011;41082;52.822;6.666;2023-04-06T09:51:36;18.55;;;12.18;;
55210;SDS011;41082;52.822;6.666;2023-04-06T09:54:02;14.55;;;10.50;;
55210;SDS011;41082;52.822;6.666;2023-04-06T09:56:31;14.30;;;9.70;;
55210;SDS011;41082;52.822;6.666;2023-04-06T09:59:12;13.98;;;9.93;;
55210;SDS011;41082;52.822;6.666;2023-04-06T10:01:39;13.70;;;9.85;;
55210;SDS011;41082;52.822;6.666;2023-04-06T10:04:09;15.60;;;11.02;;
55210;SDS011;41082;52.822;6.666;2023-04-06T10:06:46;15.33;;;10.57;;
55210;SDS011;41082;52.822;6.666;2023-04-06T10:09:17;17.48;;;10.57;;
55210;SDS011;41082;52.822;6.666;2023-04-06T10:11:46;17.27;;;11.10;;
55210;SDS011;41082;52.822;6.666;2023-04-06T10:14:14;15.50;;;11.27;;
55210;SDS011;41082;52.822;6.666;2023-04-06T10:16:41;13.50;;;10.38;;
55210;SDS011;41082;52.822;6.666;2023-04-06T10:19:14;20.77;;;10.52;;
55210;SDS011;41082;52.822;6.666;2023-04-06T10:21:43;17.75;;;11.85;;
55210;SDS011;41082;52.822;6.666;2023-04-06T10:24:13;16.83;;;12.13;;
55210;SDS011;41082;52.822;6.666;2023-04-06T10:26:39;17.27;;;11.98;;
55210;SDS011;41082;52.822;6.666;2023-04-06T10:29:05;17.60;;;11.85;;
55210;SDS011;41082;52.822;6.666;2023-04-06T10:31:31;16.23;;;12.32;;
55210;SDS011;41082;52.822;6.666;2023-04-06T10:34:00;18.30;;;12.57;;
55210;SDS011;41082;52.822;6.666;2023-04-06T10:36:27;17.92;;;12.57;;
55210;SDS011;41082;52.822;6.666;2023-04-06T10:38:57;17.85;;;12.00;;
55210;SDS011;41082;52.822;6.666;2023-04-06T10:41:31;16.95;;;12.25;;
55210;SDS011;41082;52.822;6.666;2023-04-06T10:44:02;20.20;;;13.15;;
55210;SDS011;41082;52.822;6.666;2023-04-06T10:46:29;17.70;;;14.30;;
55210;SDS011;41082;52.822;6.666;2023-04-06T10:48:55;17.20;;;12.98;;
55210;SDS011;41082;52.822;6.666;2023-04-06T10:51:25;18.85;;;13.75;;
55210;SDS011;41082;52.822;6.666;2023-04-06T10:53:52;21.00;;;13.80;;
55210;SDS011;41082;52.822;6.666;2023-04-06T10:56:21;17.70;;;13.55;;
55210;SDS011;41082;52.822;6.666;2023-04-06T10:58:48;18.45;;;14.05;;
55210;SDS011;41082;52.822;6.666;2023-04-06T11:01:16;19.63;;;15.63;;
55210;SDS011;41082;52.822;6.666;2023-04-06T11:03:46;21.65;;;16.90;;
55210;SDS011;41082;52.822;6.666;2023-04-06T11:06:22;21.27;;;16.15;;
55210;SDS011;41082;52.822;6.666;2023-04-06T11:08:54;21.45;;;16.63;;
55210;SDS011;41082;52.822;6.666;2023-04-06T11:11:21;22.70;;;16.55;;
55210;SDS011;41082;52.822;6.666;2023-04-06T11:13:58;23.25;;;16.98;;
55210;SDS011;41082;52.822;6.666;2023-04-06T11:16:29;19.70;;;15.55;;
55210;SDS011;41082;52.822;6.666;2023-04-06T11:18:57;22.27;;;16.42;;
55210;SDS011;41082;52.822;6.666;2023-04-06T11:21:46;19.58;;;15.15;;
55210;SDS011;41082;52.822;6.666;2023-04-06T11:24:17;20.38;;;15.57;;
55210;SDS011;41082;52.822;6.666;2023-04-06T11:29:13;20.83;;;15.18;;
55210;SDS011;41082;52.822;6.666;2023-04-06T11:31:51;20.48;;;15.93;;
55210;SDS011;41082;52.822;6.666;2023-04-06T11:34:20;21.38;;;15.60;;
55210;SDS011;41082;52.822;6.666;2023-04-06T11:36:47;22.05;;;16.55;;
55210;SDS011;41082;52.822;6.666;2023-04-06T11:39:17;22.92;;;16.42;;
55210;SDS011;41082;52.822;6.666;2023-04-06T11:44:14;21.80;;;15.88;;
55210;SDS011;41082;52.822;6.666;2023-04-06T11:46:39;22.50;;;15.07;;
55210;SDS011;41082;52.822;6.666;2023-04-06T11:49:05;22.27;;;15.95;;
55210;SDS011;41082;52.822;6.666;2023-04-06T11:51:35;21.50;;;16.52;;
55210;SDS011;41082;52.822;6.666;2023-04-06T11:54:01;21.90;;;15.27;;
55210;SDS011;41082;52.822;6.666;2023-04-06T11:56:30;20.73;;;16.08;;
55210;SDS011;41082;52.822;6.666;2023-04-06T11:58:56;21.13;;;16.13;;
55210;SDS011;41082;52.822;6.666;2023-04-06T12:01:23;21.13;;;16.30;;
55210;SDS011;41082;52.822;6.666;2023-04-06T12:03:49;21.60;;;16.38;;
55210;SDS011;41082;52.822;6.666;2023-04-06T12:06:16;20.90;;;16.90;;
55210;SDS011;41082;52.822;6.666;2023-04-06T12:08:42;19.38;;;15.70;;
55210;SDS011;41082;52.822;6.666;2023-04-06T12:11:08;22.73;;;16.80;;
55210;SDS011;41082;52.822;6.666;2023-04-06T12:13:33;23.40;;;15.65;;
55210;SDS011;41082;52.822;6.666;2023-04-06T12:15:59;23.58;;;17.13;;
55210;SDS011;41082;52.822;6.666;2023-04-06T12:18:25;23.02;;;16.15;;
55210;SDS011;41082;52.822;6.666;2023-04-06T12:20:51;23.83;;;16.80;;
55210;SDS011;41082;52.822;6.666;2023-04-06T12:23:17;23.13;;;17.15;;
55210;SDS011;41082;52.822;6.666;2023-04-06T12:25:43;24.25;;;16.25;;
55210;SDS011;41082;52.822;6.666;2023-04-06T12:28:09;20.80;;;15.80;;
55210;SDS011;41082;52.822;6.666;2023-04-06T12:30:35;22.85;;;15.55;;
55210;SDS011;41082;52.822;6.666;2023-04-06T12:33:00;22.17;;;16.05;;
55210;SDS011;41082;52.822;6.666;2023-04-06T12:35:26;20.92;;;15.57;;
55210;SDS011;41082;52.822;6.666;2023-04-06T12:37:52;21.42;;;16.17;;
55210;SDS011;41082;52.822;6.666;2023-04-06T12:40:18;22.80;;;15.35;;
55210;SDS011;41082;52.822;6.666;2023-04-06T12:42:43;22.17;;;14.90;;
55210;SDS011;41082;52.822;6.666;2023-04-06T12:45:10;22.23;;;15.57;;
55210;SDS011;41082;52.822;6.666;2023-04-06T12:47:36;20.27;;;15.60;;
55210;SDS011;41082;52.822;6.666;2023-04-06T12:50:03;20.85;;;15.45;;
55210;SDS011;41082;52.822;6.666;2023-04-06T12:52:32;20.70;;;15.43;;
55210;SDS011;41082;52.822;6.666;2023-04-06T12:55:00;21.48;;;15.93;;
55210;SDS011;41082;52.822;6.666;2023-04-06T12:57:29;21.70;;;15.88;;
55210;SDS011;41082;52.822;6.666;2023-04-06T12:59:56;20.17;;;15.70;;
55210;SDS011;41082;52.822;6.666;2023-04-06T13:02:22;22.33;;;16.30;;
55210;SDS011;41082;52.822;6.666;2023-04-06T13:04:48;21.58;;;15.68;;
55210;SDS011;41082;52.822;6.666;2023-04-06T13:07:14;21.08;;;15.35;;
55210;SDS011;41082;52.822;6.666;2023-04-06T13:09:40;19.85;;;15.38;;
55210;SDS011;41082;52.822;6.666;2023-04-06T13:12:06;20.60;;;15.77;;
55210;SDS011;41082;52.822;6.666;2023-04-06T13:14:31;21.02;;;15.82;;
55210;SDS011;41082;52.822;6.666;2023-04-06T13:16:57;22.73;;;15.65;;
55210;SDS011;41082;52.822;6.666;2023-04-06T13:19:22;21.02;;;14.88;;
55210;SDS011;41082;52.822;6.666;2023-04-06T13:21:48;22.35;;;14.95;;
55210;SDS011;41082;52.822;6.666;2023-04-06T13:24:14;18.85;;;14.77;;
55210;SDS011;41082;52.822;6.666;2023-04-06T13:26:40;19.08;;;15.15;;
55210;SDS011;41082;52.822;6.666;2023-04-06T13:29:06;20.23;;;15.93;;
55210;SDS011;41082;52.822;6.666;2023-04-06T13:31:32;25.73;;;15.63;;
55210;SDS011;41082;52.822;6.666;2023-04-06T13:33:58;22.83;;;14.63;;
55210;SDS011;41082;52.822;6.666;2023-04-06T13:36:23;21.73;;;14.88;;
55210;SDS011;41082;52.822;6.666;2023-04-06T13:38:49;19.15;;;15.75;;
55210;SDS011;41082;52.822;6.666;2023-04-06T13:41:19;21.25;;;15.88;;
55210;SDS011;41082;52.822;6.666;2023-04-06T13:43:46;21.92;;;15.00;;
55210;SDS011;41082;52.822;6.666;2023-04-06T13:46:12;20.92;;;15.55;;
55210;SDS011;41082;52.822;6.666;2023-04-06T13:48:37;21.70;;;15.90;;
55210;SDS011;41082;52.822;6.666;2023-04-06T13:51:10;17.42;;;13.25;;
55210;SDS011;41082;52.822;6.666;2023-04-06T13:53:36;17.23;;;12.88;;
55210;SDS011;41082;52.822;6.666;2023-04-06T13:56:02;18.38;;;13.23;;
55210;SDS011;41082;52.822;6.666;2023-04-06T13:58:28;18.40;;;13.50;;
55210;SDS011;41082;52.822;6.666;2023-04-06T14:00:54;22.60;;;14.07;;
55210;SDS011;41082;52.822;6.666;2023-04-06T14:03:20;16.73;;;13.32;;
55210;SDS011;41082;52.822;6.666;2023-04-06T14:05:47;16.65;;;13.52;;
55210;SDS011;41082;52.822;6.666;2023-04-06T14:08:12;15.25;;;11.23;;
55210;SDS011;41082;52.822;6.666;2023-04-06T14:10:38;16.23;;;10.77;;
55210;SDS011;41082;52.822;6.666;2023-04-06T14:13:05;17.00;;;12.80;;
55210;SDS011;41082;52.822;6.666;2023-04-06T14:15:31;18.52;;;11.88;;
55210;SDS011;41082;52.822;6.666;2023-04-06T14:17:57;15.05;;;12.20;;
55210;SDS011;41082;52.822;6.666;2023-04-06T14:20:22;18.27;;;12.07;;
55210;SDS011;41082;52.822;6.666;2023-04-06T14:22:48;16.27;;;12.23;;
55210;SDS011;41082;52.822;6.666;2023-04-06T14:25:16;14.68;;;12.23;;
55210;SDS011;41082;52.822;6.666;2023-04-06T14:27:42;17.63;;;12.02;;
55210;SDS011;41082;52.822;6.666;2023-04-06T14:30:08;14.18;;;11.18;;
55210;SDS011;41082;52.822;6.666;2023-04-06T14:32:34;14.30;;;11.10;;
55210;SDS011;41082;52.822;6.666;2023-04-06T14:35:01;13.30;;;11.38;;
55210;SDS011;41082;52.822;6.666;2023-04-06T14:37:27;13.30;;;10.35;;